sensor_id;sensor_type;location;lat;lon;timestamp;temperature;humidity
9980;DHT22;5030;51.532;6.766;2023-06-14T00:01:47;16.80;1.00
9980;DHT22;5030;51.532;6.766;2023-06-14T00:04:14;16.80;1.00
9980;DHT22;5030;51.532;6.766;2023-06-14T00:06:42;16.80;1.00
9980;DHT22;5030;51.532;6.766;2023-06-14T00:09:11;16.80;1.00
9980;DHT22;5030;51.532;6.766;2023-06-14T00:11:39;16.80;1.00
9980;DHT22;5030;51.532;6.766;2023-06-14T00:14:05;16.80;1.00
9980;DHT22;5030;51.532;6.766;2023-06-14T00:16:31;16.80;1.00
9980;DHT22;5030;51.532;6.766;2023-06-14T00:18:58;16.90;1.00
9980;DHT22;5030;51.532;6.766;2023-06-14T00:21:23;16.90;1.00
9980;DHT22;5030;51.532;6.766;2023-06-14T00:23:49;16.80;1.00
9980;DHT22;5030;51.532;6.766;2023-06-14T00:26:15;16.80;1.00
9980;DHT22;5030;51.532;6.766;2023-06-14T00:28:40;16.70;1.00
9980;DHT22;5030;51.532;6.766;2023-06-14T00:31:06;16.80;1.00
9980;DHT22;5030;51.532;6.766;2023-06-14T00:33:32;16.80;1.00
9980;DHT22;5030;51.532;6.766;2023-06-14T00:35:57;16.80;1.00
9980;DHT22;5030;51.532;6.766;2023-06-14T00:38:23;16.80;1.00
9980;DHT22;5030;51.532;6.766;2023-06-14T00:40:49;16.80;1.00
9980;DHT22;5030;51.532;6.766;2023-06-14T00:43:14;16.70;1.00
9980;DHT22;5030;51.532;6.766;2023-06-14T00:45:40;16.80;1.00
9980;DHT22;5030;51.532;6.766;2023-06-14T00:48:06;16.80;1.00
9980;DHT22;5030;51.532;6.766;2023-06-14T00:50:33;16.80;1.00
9980;DHT22;5030;51.532;6.766;2023-06-14T00:53:00;16.80;1.00
9980;DHT22;5030;51.532;6.766;2023-06-14T00:55:27;16.80;1.00
9980;DHT22;5030;51.532;6.766;2023-06-14T00:57:54;16.70;1.00
9980;DHT22;5030;51.532;6.766;2023-06-14T01:00:20;16.70;1.00
9980;DHT22;5030;51.532;6.766;2023-06-14T01:02:46;16.60;1.00
9980;DHT22;5030;51.532;6.766;2023-06-14T01:05:12;16.70;1.00
9980;DHT22;5030;51.532;6.766;2023-06-14T01:13:15;16.80;1.00
9980;DHT22;5030;51.532;6.766;2023-06-14T01:15:45;16.80;1.00
9980;DHT22;5030;51.532;6.766;2023-06-14T01:18:12;16.80;1.00
9980;DHT22;5030;51.532;6.766;2023-06-14T01:20:42;16.80;1.00
9980;DHT22;5030;51.532;6.766;2023-06-14T01:23:10;16.80;1.00
9980;DHT22;5030;51.532;6.766;2023-06-14T01:25:37;16.80;1.00
9980;DHT22;5030;51.532;6.766;2023-06-14T01:28:05;16.70;1.00
9980;DHT22;5030;51.532;6.766;2023-06-14T01:30:40;16.70;1.00
9980;DHT22;5030;51.532;6.766;2023-06-14T01:33:14;16.80;1.00
9980;DHT22;5030;51.532;6.766;2023-06-14T01:35:47;16.80;1.00
9980;DHT22;5030;51.532;6.766;2023-06-14T01:38:13;16.70;1.00
9980;DHT22;5030;51.532;6.766;2023-06-14T01:40:41;16.70;1.00
9980;DHT22;5030;51.532;6.766;2023-06-14T01:43:10;16.70;1.00
9980;DHT22;5030;51.532;6.766;2023-06-14T01:45:36;16.70;1.00
9980;DHT22;5030;51.532;6.766;2023-06-14T01:48:03;16.70;1.00
9980;DHT22;5030;51.532;6.766;2023-06-14T01:50:30;16.60;1.00
9980;DHT22;5030;51.532;6.766;2023-06-14T01:52:57;16.60;1.00
9980;DHT22;5030;51.532;6.766;2023-06-14T01:55:23;16.60;1.00
9980;DHT22;5030;51.532;6.766;2023-06-14T02:57:23;15.70;1.00
9980;DHT22;5030;51.532;6.766;2023-06-14T02:59:49;15.70;1.00
9980;DHT22;5030;51.532;6.766;2023-06-14T03:02:14;15.70;1.00
9980;DHT22;5030;51.532;6.766;2023-06-14T03:04:40;15.70;1.00
9980;DHT22;5030;51.532;6.766;2023-06-14T03:07:06;15.60;1.00
9980;DHT22;5030;51.532;6.766;2023-06-14T03:09:35;15.60;1.00
9980;DHT22;5030;51.532;6.766;2023-06-14T03:12:02;15.70;1.00
9980;DHT22;5030;51.532;6.766;2023-06-14T03:14:28;15.60;1.00
9980;DHT22;5030;51.532;6.766;2023-06-14T03:16:56;15.60;1.00
9980;DHT22;5030;51.532;6.766;2023-06-14T03:19:24;15.50;1.00
9980;DHT22;5030;51.532;6.766;2023-06-14T03:21:52;15.50;1.00
9980;DHT22;5030;51.532;6.766;2023-06-14T03:24:17;15.40;1.00
9980;DHT22;5030;51.532;6.766;2023-06-14T03:26:43;15.40;1.00
9980;DHT22;5030;51.532;6.766;2023-06-14T03:29:09;15.40;1.00
9980;DHT22;5030;51.532;6.766;2023-06-14T03:31:35;15.40;1.00
9980;DHT22;5030;51.532;6.766;2023-06-14T03:34:01;15.40;1.00
9980;DHT22;5030;51.532;6.766;2023-06-14T03:36:27;15.40;1.00
9980;DHT22;5030;51.532;6.766;2023-06-14T03:38:56;15.50;1.00
9980;DHT22;5030;51.532;6.766;2023-06-14T03:41:22;15.50;1.00
9980;DHT22;5030;51.532;6.766;2023-06-14T03:43:47;15.50;1.00
9980;DHT22;5030;51.532;6.766;2023-06-14T03:46:13;15.60;1.00
9980;DHT22;5030;51.532;6.766;2023-06-14T03:48:38;15.60;1.00
9980;DHT22;5030;51.532;6.766;2023-06-14T03:51:04;15.60;1.00
9980;DHT22;5030;51.532;6.766;2023-06-14T03:53:30;15.70;1.00
9980;DHT22;5030;51.532;6.766;2023-06-14T03:55:56;15.70;1.00
9980;DHT22;5030;51.532;6.766;2023-06-14T03:58:22;15.80;1.00
9980;DHT22;5030;51.532;6.766;2023-06-14T04:00:48;15.80;1.00
9980;DHT22;5030;51.532;6.766;2023-06-14T04:03:14;15.80;1.00
9980;DHT22;5030;51.532;6.766;2023-06-14T04:05:41;15.80;1.00
9980;DHT22;5030;51.532;6.766;2023-06-14T04:08:13;15.80;1.00
9980;DHT22;5030;51.532;6.766;2023-06-14T04:10:40;15.80;1.00
9980;DHT22;5030;51.532;6.766;2023-06-14T04:13:05;15.80;1.00
9980;DHT22;5030;51.532;6.766;2023-06-14T04:15:32;15.90;1.00
9980;DHT22;5030;51.532;6.766;2023-06-14T04:17:58;15.90;1.00
9980;DHT22;5030;51.532;6.766;2023-06-14T04:20:24;16.00;1.00
9980;DHT22;5030;51.532;6.766;2023-06-14T04:22:51;16.00;1.00
9980;DHT22;5030;51.532;6.766;2023-06-14T04:25:18;16.00;1.00
9980;DHT22;5030;51.532;6.766;2023-06-14T04:27:43;16.10;1.00
9980;DHT22;5030;51.532;6.766;2023-06-14T04:30:10;16.10;1.00
9980;DHT22;5030;51.532;6.766;2023-06-14T04:32:36;16.10;1.00
9980;DHT22;5030;51.532;6.766;2023-06-14T04:35:08;16.10;1.00
9980;DHT22;5030;51.532;6.766;2023-06-14T04:37:34;16.10;1.00
9980;DHT22;5030;51.532;6.766;2023-06-14T04:40:00;16.30;1.00
9980;DHT22;5030;51.532;6.766;2023-06-14T04:42:26;16.30;1.00
9980;DHT22;5030;51.532;6.766;2023-06-14T04:44:56;16.40;1.00
9980;DHT22;5030;51.532;6.766;2023-06-14T04:47:22;16.50;1.00
9980;DHT22;5030;51.532;6.766;2023-06-14T04:49:50;16.50;1.00
9980;DHT22;5030;51.532;6.766;2023-06-14T04:52:19;16.50;1.00
9980;DHT22;5030;51.532;6.766;2023-06-14T04:54:46;16.60;1.00
9980;DHT22;5030;51.532;6.766;2023-06-14T04:57:12;16.60;1.00
9980;DHT22;5030;51.532;6.766;2023-06-14T04:59:43;16.70;1.00
9980;DHT22;5030;51.532;6.766;2023-06-14T05:02:10;16.80;1.00
9980;DHT22;5030;51.532;6.766;2023-06-14T05:04:35;16.90;1.00
9980;DHT22;5030;51.532;6.766;2023-06-14T05:07:08;17.00;1.00
9980;DHT22;5030;51.532;6.766;2023-06-14T05:09:35;17.00;1.00
9980;DHT22;5030;51.532;6.766;2023-06-14T05:12:02;17.00;1.00
9980;DHT22;5030;51.532;6.766;2023-06-14T05:14:28;17.10;1.00
9980;DHT22;5030;51.532;6.766;2023-06-14T05:16:53;17.10;1.00
9980;DHT22;5030;51.532;6.766;2023-06-14T05:19:19;17.10;1.00
9980;DHT22;5030;51.532;6.766;2023-06-14T05:21:46;17.20;1.00
9980;DHT22;5030;51.532;6.766;2023-06-14T05:24:13;17.30;1.00
9980;DHT22;5030;51.532;6.766;2023-06-14T05:26:39;17.30;1.00
9980;DHT22;5030;51.532;6.766;2023-06-14T05:29:05;17.40;1.00
9980;DHT22;5030;51.532;6.766;2023-06-14T05:31:31;17.50;1.00
9980;DHT22;5030;51.532;6.766;2023-06-14T05:33:57;17.50;1.00
9980;DHT22;5030;51.532;6.766;2023-06-14T05:36:22;17.60;1.00
9980;DHT22;5030;51.532;6.766;2023-06-14T05:38:48;17.60;1.00
9980;DHT22;5030;51.532;6.766;2023-06-14T05:41:16;17.60;1.00
9980;DHT22;5030;51.532;6.766;2023-06-14T05:43:41;17.70;1.00
9980;DHT22;5030;51.532;6.766;2023-06-14T05:46:07;17.80;1.00
9980;DHT22;5030;51.532;6.766;2023-06-14T05:48:32;17.80;1.00
9980;DHT22;5030;51.532;6.766;2023-06-14T05:50:58;17.90;1.00
9980;DHT22;5030;51.532;6.766;2023-06-14T05:53:25;18.00;1.00
9980;DHT22;5030;51.532;6.766;2023-06-14T05:55:51;18.00;1.00
9980;DHT22;5030;51.532;6.766;2023-06-14T05:58:20;18.00;1.00
9980;DHT22;5030;51.532;6.766;2023-06-14T06:00:46;18.10;1.00
9980;DHT22;5030;51.532;6.766;2023-06-14T06:03:12;18.20;1.00
9980;DHT22;5030;51.532;6.766;2023-06-14T06:05:39;18.20;1.00
9980;DHT22;5030;51.532;6.766;2023-06-14T06:08:05;18.30;1.00
9980;DHT22;5030;51.532;6.766;2023-06-14T06:10:31;18.40;1.00
9980;DHT22;5030;51.532;6.766;2023-06-14T06:12:57;18.50;1.00
9980;DHT22;5030;51.532;6.766;2023-06-14T06:15:22;18.50;1.00
9980;DHT22;5030;51.532;6.766;2023-06-14T06:17:48;18.60;1.00
9980;DHT22;5030;51.532;6.766;2023-06-14T06:20:14;18.60;1.00
9980;DHT22;5030;51.532;6.766;2023-06-14T06:22:39;18.60;1.00
9980;DHT22;5030;51.532;6.766;2023-06-14T06:25:05;18.70;1.00
9980;DHT22;5030;51.532;6.766;2023-06-14T06:27:32;18.70;1.00
9980;DHT22;5030;51.532;6.766;2023-06-14T06:29:57;18.80;1.00
9980;DHT22;5030;51.532;6.766;2023-06-14T06:32:23;18.80;1.00
9980;DHT22;5030;51.532;6.766;2023-06-14T06:34:48;18.90;1.00
9980;DHT22;5030;51.532;6.766;2023-06-14T06:37:14;19.00;1.00
9980;DHT22;5030;51.532;6.766;2023-06-14T06:39:40;19.00;1.00
9980;DHT22;5030;51.532;6.766;2023-06-14T06:42:06;19.10;1.00
9980;DHT22;5030;51.532;6.766;2023-06-14T06:44:32;19.10;1.00
9980;DHT22;5030;51.532;6.766;2023-06-14T06:46:58;19.00;1.00
9980;DHT22;5030;51.532;6.766;2023-06-14T06:49:24;19.10;1.00
9980;DHT22;5030;51.532;6.766;2023-06-14T06:52:04;19.20;1.00
9980;DHT22;5030;51.532;6.766;2023-06-14T06:54:30;19.20;1.00
9980;DHT22;5030;51.532;6.766;2023-06-14T06:56:56;19.30;1.00
9980;DHT22;5030;51.532;6.766;2023-06-14T06:59:22;19.40;1.00
9980;DHT22;5030;51.532;6.766;2023-06-14T07:01:47;19.40;1.00
9980;DHT22;5030;51.532;6.766;2023-06-14T07:04:13;19.50;1.00
9980;DHT22;5030;51.532;6.766;2023-06-14T07:06:39;19.50;1.00
9980;DHT22;5030;51.532;6.766;2023-06-14T07:09:05;19.40;1.00
9980;DHT22;5030;51.532;6.766;2023-06-14T07:11:33;19.60;1.00
9980;DHT22;5030;51.532;6.766;2023-06-14T07:13:59;19.60;1.00
9980;DHT22;5030;51.532;6.766;2023-06-14T07:16:25;19.70;1.00
9980;DHT22;5030;51.532;6.766;2023-06-14T07:18:51;19.70;1.00
9980;DHT22;5030;51.532;6.766;2023-06-14T07:21:17;19.80;1.00
9980;DHT22;5030;51.532;6.766;2023-06-14T07:23:43;19.90;1.00
9980;DHT22;5030;51.532;6.766;2023-06-14T07:26:09;20.10;1.00
9980;DHT22;5030;51.532;6.766;2023-06-14T07:28:34;20.10;1.00
9980;DHT22;5030;51.532;6.766;2023-06-14T07:31:01;20.10;1.00
9980;DHT22;5030;51.532;6.766;2023-06-14T07:33:26;20.20;1.00
9980;DHT22;5030;51.532;6.766;2023-06-14T07:35:52;20.20;1.00
9980;DHT22;5030;51.532;6.766;2023-06-14T07:38:18;20.30;1.00
9980;DHT22;5030;51.532;6.766;2023-06-14T07:40:43;20.30;1.00
9980;DHT22;5030;51.532;6.766;2023-06-14T07:43:09;20.40;1.00
9980;DHT22;5030;51.532;6.766;2023-06-14T07:45:35;20.40;1.00
9980;DHT22;5030;51.532;6.766;2023-06-14T07:48:01;20.40;1.00
9980;DHT22;5030;51.532;6.766;2023-06-14T07:50:26;20.30;1.00
9980;DHT22;5030;51.532;6.766;2023-06-14T07:52:52;20.50;1.00
9980;DHT22;5030;51.532;6.766;2023-06-14T07:55:18;20.70;1.00
9980;DHT22;5030;51.532;6.766;2023-06-14T07:57:43;20.70;1.00
9980;DHT22;5030;51.532;6.766;2023-06-14T08:00:10;20.80;1.00
9980;DHT22;5030;51.532;6.766;2023-06-14T08:02:43;20.90;1.00
9980;DHT22;5030;51.532;6.766;2023-06-14T08:05:12;20.80;1.00
9980;DHT22;5030;51.532;6.766;2023-06-14T08:07:41;20.90;1.00
9980;DHT22;5030;51.532;6.766;2023-06-14T08:10:08;21.00;1.00
9980;DHT22;5030;51.532;6.766;2023-06-14T08:12:34;21.20;1.00
9980;DHT22;5030;51.532;6.766;2023-06-14T08:15:00;21.10;1.00
9980;DHT22;5030;51.532;6.766;2023-06-14T08:17:26;21.20;1.00
9980;DHT22;5030;51.532;6.766;2023-06-14T08:19:52;21.30;1.00
9980;DHT22;5030;51.532;6.766;2023-06-14T08:22:20;21.30;1.00
9980;DHT22;5030;51.532;6.766;2023-06-14T08:24:47;21.30;1.00
9980;DHT22;5030;51.532;6.766;2023-06-14T08:27:13;21.40;1.00
9980;DHT22;5030;51.532;6.766;2023-06-14T08:29:38;21.60;1.00
9980;DHT22;5030;51.532;6.766;2023-06-14T08:32:06;21.60;1.00
9980;DHT22;5030;51.532;6.766;2023-06-14T08:34:32;21.70;1.00
9980;DHT22;5030;51.532;6.766;2023-06-14T08:36:58;21.80;1.00
9980;DHT22;5030;51.532;6.766;2023-06-14T08:39:23;21.90;1.00
9980;DHT22;5030;51.532;6.766;2023-06-14T08:41:50;21.90;1.00
9980;DHT22;5030;51.532;6.766;2023-06-14T08:44:18;21.90;1.00
9980;DHT22;5030;51.532;6.766;2023-06-14T08:46:44;21.80;1.00
9980;DHT22;5030;51.532;6.766;2023-06-14T08:49:16;21.90;1.00
9980;DHT22;5030;51.532;6.766;2023-06-14T08:51:43;22.00;1.00
9980;DHT22;5030;51.532;6.766;2023-06-14T08:54:10;21.90;1.00
9980;DHT22;5030;51.532;6.766;2023-06-14T08:56:38;22.00;1.00
9980;DHT22;5030;51.532;6.766;2023-06-14T08:59:04;22.10;1.00
9980;DHT22;5030;51.532;6.766;2023-06-14T09:01:36;22.20;1.00
9980;DHT22;5030;51.532;6.766;2023-06-14T09:04:02;22.30;1.00
9980;DHT22;5030;51.532;6.766;2023-06-14T09:06:30;22.30;1.00
9980;DHT22;5030;51.532;6.766;2023-06-14T09:08:56;22.40;1.00
9980;DHT22;5030;51.532;6.766;2023-06-14T09:11:24;22.40;1.00
9980;DHT22;5030;51.532;6.766;2023-06-14T09:13:52;22.30;1.00
9980;DHT22;5030;51.532;6.766;2023-06-14T09:16:18;22.50;1.00
9980;DHT22;5030;51.532;6.766;2023-06-14T09:18:45;22.60;1.00
9980;DHT22;5030;51.532;6.766;2023-06-14T09:21:14;22.60;1.00
9980;DHT22;5030;51.532;6.766;2023-06-14T09:23:42;22.60;1.00
9980;DHT22;5030;51.532;6.766;2023-06-14T09:26:17;22.70;1.00
9980;DHT22;5030;51.532;6.766;2023-06-14T09:28:43;22.80;1.00
9980;DHT22;5030;51.532;6.766;2023-06-14T09:31:16;22.90;1.00
9980;DHT22;5030;51.532;6.766;2023-06-14T09:33:46;23.10;1.00
9980;DHT22;5030;51.532;6.766;2023-06-14T09:36:16;23.20;1.00
9980;DHT22;5030;51.532;6.766;2023-06-14T09:38:55;23.20;1.00
9980;DHT22;5030;51.532;6.766;2023-06-14T09:41:37;23.30;1.00
9980;DHT22;5030;51.532;6.766;2023-06-14T09:44:05;23.20;1.00
9980;DHT22;5030;51.532;6.766;2023-06-14T09:46:32;23.20;1.00
9980;DHT22;5030;51.532;6.766;2023-06-14T09:48:59;23.10;1.00
9980;DHT22;5030;51.532;6.766;2023-06-14T09:51:26;23.20;1.00
9980;DHT22;5030;51.532;6.766;2023-06-14T09:53:52;23.30;1.00
9980;DHT22;5030;51.532;6.766;2023-06-14T09:56:31;23.50;1.00
9980;DHT22;5030;51.532;6.766;2023-06-14T09:58:58;23.40;1.00
9980;DHT22;5030;51.532;6.766;2023-06-14T10:01:25;23.70;1.00
9980;DHT22;5030;51.532;6.766;2023-06-14T10:03:55;23.80;1.00
9980;DHT22;5030;51.532;6.766;2023-06-14T10:06:25;23.80;1.00
9980;DHT22;5030;51.532;6.766;2023-06-14T10:08:59;24.10;1.00
9980;DHT22;5030;51.532;6.766;2023-06-14T10:11:26;24.00;1.00
9980;DHT22;5030;51.532;6.766;2023-06-14T10:13:52;24.10;1.00
9980;DHT22;5030;51.532;6.766;2023-06-14T10:16:27;24.00;1.00
9980;DHT22;5030;51.532;6.766;2023-06-14T10:19:07;23.90;1.00
9980;DHT22;5030;51.532;6.766;2023-06-14T10:22:14;23.90;1.00
9980;DHT22;5030;51.532;6.766;2023-06-14T10:24:43;23.90;1.00
9980;DHT22;5030;51.532;6.766;2023-06-14T10:27:09;23.90;1.00
9980;DHT22;5030;51.532;6.766;2023-06-14T10:32:20;24.10;1.00
9980;DHT22;5030;51.532;6.766;2023-06-14T10:34:57;23.90;1.00
9980;DHT22;5030;51.532;6.766;2023-06-14T10:37:23;24.10;1.00
9980;DHT22;5030;51.532;6.766;2023-06-14T10:39:50;24.30;1.00
9980;DHT22;5030;51.532;6.766;2023-06-14T10:42:16;24.40;1.00
9980;DHT22;5030;51.532;6.766;2023-06-14T10:44:49;24.60;1.00
9980;DHT22;5030;51.532;6.766;2023-06-14T10:47:35;24.80;1.00
9980;DHT22;5030;51.532;6.766;2023-06-14T10:52:28;25.00;1.00
9980;DHT22;5030;51.532;6.766;2023-06-14T10:55:05;25.10;1.00
9980;DHT22;5030;51.532;6.766;2023-06-14T10:57:35;25.20;1.00
9980;DHT22;5030;51.532;6.766;2023-06-14T11:00:02;25.20;1.00
9980;DHT22;5030;51.532;6.766;2023-06-14T11:05:27;25.10;1.00
9980;DHT22;5030;51.532;6.766;2023-06-14T11:10:39;25.50;1.00
9980;DHT22;5030;51.532;6.766;2023-06-14T11:13:08;25.80;1.00
9980;DHT22;5030;51.532;6.766;2023-06-14T11:15:36;25.70;1.00
9980;DHT22;5030;51.532;6.766;2023-06-14T11:18:04;25.90;1.00
9980;DHT22;5030;51.532;6.766;2023-06-14T11:20:32;26.10;1.00
9980;DHT22;5030;51.532;6.766;2023-06-14T11:22:58;26.60;1.00
9980;DHT22;5030;51.532;6.766;2023-06-14T11:25:24;26.60;1.00
9980;DHT22;5030;51.532;6.766;2023-06-14T11:27:50;26.10;1.00
9980;DHT22;5030;51.532;6.766;2023-06-14T11:30:17;26.30;1.00
9980;DHT22;5030;51.532;6.766;2023-06-14T11:32:45;26.50;1.00
9980;DHT22;5030;51.532;6.766;2023-06-14T11:35:11;26.70;1.00
9980;DHT22;5030;51.532;6.766;2023-06-14T11:37:37;26.90;1.00
9980;DHT22;5030;51.532;6.766;2023-06-14T11:40:04;26.90;1.00
9980;DHT22;5030;51.532;6.766;2023-06-14T11:42:35;27.30;1.00
9980;DHT22;5030;51.532;6.766;2023-06-14T11:45:01;27.40;1.00
9980;DHT22;5030;51.532;6.766;2023-06-14T11:47:39;27.40;1.00
9980;DHT22;5030;51.532;6.766;2023-06-14T11:50:09;27.20;1.00
9980;DHT22;5030;51.532;6.766;2023-06-14T11:52:36;27.20;1.00
9980;DHT22;5030;51.532;6.766;2023-06-14T11:55:03;27.30;1.00
9980;DHT22;5030;51.532;6.766;2023-06-14T11:57:36;27.10;1.00
9980;DHT22;5030;51.532;6.766;2023-06-14T12:00:06;27.20;1.00
9980;DHT22;5030;51.532;6.766;2023-06-14T12:02:41;27.50;1.00
9980;DHT22;5030;51.532;6.766;2023-06-14T12:05:08;27.50;1.00
9980;DHT22;5030;51.532;6.766;2023-06-14T12:07:39;27.60;1.00
9980;DHT22;5030;51.532;6.766;2023-06-14T12:10:09;27.20;1.00
9980;DHT22;5030;51.532;6.766;2023-06-14T12:12:39;27.90;1.00
9980;DHT22;5030;51.532;6.766;2023-06-14T12:15:09;27.70;1.00
9980;DHT22;5030;51.532;6.766;2023-06-14T12:17:37;27.50;1.00
9980;DHT22;5030;51.532;6.766;2023-06-14T12:22:54;28.00;1.00
9980;DHT22;5030;51.532;6.766;2023-06-14T12:25:29;27.50;1.00
9980;DHT22;5030;51.532;6.766;2023-06-14T12:27:57;27.40;1.00
9980;DHT22;5030;51.532;6.766;2023-06-14T12:30:22;28.20;1.00
9980;DHT22;5030;51.532;6.766;2023-06-14T12:32:48;28.50;1.00
9980;DHT22;5030;51.532;6.766;2023-06-14T12:35:15;28.50;1.00
9980;DHT22;5030;51.532;6.766;2023-06-14T12:37:41;28.90;1.00
9980;DHT22;5030;51.532;6.766;2023-06-14T12:40:07;29.40;1.00
9980;DHT22;5030;51.532;6.766;2023-06-14T12:42:33;29.80;1.00
9980;DHT22;5030;51.532;6.766;2023-06-14T12:45:02;29.60;1.00
9980;DHT22;5030;51.532;6.766;2023-06-14T12:47:28;28.50;1.00
9980;DHT22;5030;51.532;6.766;2023-06-14T12:49:53;28.00;1.00
9980;DHT22;5030;51.532;6.766;2023-06-14T12:52:19;28.10;1.00
9980;DHT22;5030;51.532;6.766;2023-06-14T12:54:45;27.90;1.00
9980;DHT22;5030;51.532;6.766;2023-06-14T12:57:10;27.80;1.00
9980;DHT22;5030;51.532;6.766;2023-06-14T12:59:36;28.20;1.00
9980;DHT22;5030;51.532;6.766;2023-06-14T13:02:16;28.70;1.00
9980;DHT22;5030;51.532;6.766;2023-06-14T13:04:43;28.70;1.00
9980;DHT22;5030;51.532;6.766;2023-06-14T13:07:09;28.70;1.00
9980;DHT22;5030;51.532;6.766;2023-06-14T13:09:36;28.70;1.00
9980;DHT22;5030;51.532;6.766;2023-06-14T13:12:02;28.80;1.00
9980;DHT22;5030;51.532;6.766;2023-06-14T13:14:28;28.30;1.00
9980;DHT22;5030;51.532;6.766;2023-06-14T13:16:54;28.70;1.00
9980;DHT22;5030;51.532;6.766;2023-06-14T13:19:20;28.90;1.00
9980;DHT22;5030;51.532;6.766;2023-06-14T13:21:46;29.10;1.00
9980;DHT22;5030;51.532;6.766;2023-06-14T13:24:12;28.60;1.00
9980;DHT22;5030;51.532;6.766;2023-06-14T13:26:37;28.40;1.00
9980;DHT22;5030;51.532;6.766;2023-06-14T13:29:03;28.80;1.00
9980;DHT22;5030;51.532;6.766;2023-06-14T13:31:29;29.20;1.00
9980;DHT22;5030;51.532;6.766;2023-06-14T13:33:55;29.40;1.00
9980;DHT22;5030;51.532;6.766;2023-06-14T13:36:21;29.00;1.00
9980;DHT22;5030;51.532;6.766;2023-06-14T13:38:46;28.80;1.00
9980;DHT22;5030;51.532;6.766;2023-06-14T13:41:13;28.90;1.00
9980;DHT22;5030;51.532;6.766;2023-06-14T13:43:39;29.40;1.00
9980;DHT22;5030;51.532;6.766;2023-06-14T13:46:05;29.50;1.00
9980;DHT22;5030;51.532;6.766;2023-06-14T13:48:31;29.10;1.00
9980;DHT22;5030;51.532;6.766;2023-06-14T13:50:59;29.20;1.00
9980;DHT22;5030;51.532;6.766;2023-06-14T13:53:25;29.20;1.00
9980;DHT22;5030;51.532;6.766;2023-06-14T13:55:50;29.60;1.00
9980;DHT22;5030;51.532;6.766;2023-06-14T13:58:17;29.70;1.00
9980;DHT22;5030;51.532;6.766;2023-06-14T14:00:43;29.80;1.00
9980;DHT22;5030;51.532;6.766;2023-06-14T14:03:09;29.60;1.00
9980;DHT22;5030;51.532;6.766;2023-06-14T14:05:35;29.50;1.00
9980;DHT22;5030;51.532;6.766;2023-06-14T14:08:00;29.70;1.00
9980;DHT22;5030;51.532;6.766;2023-06-14T14:10:28;29.70;1.00
9980;DHT22;5030;51.532;6.766;2023-06-14T14:12:53;29.10;1.00
9980;DHT22;5030;51.532;6.766;2023-06-14T14:15:20;28.70;1.00
9980;DHT22;5030;51.532;6.766;2023-06-14T14:17:46;28.10;1.00
9980;DHT22;5030;51.532;6.766;2023-06-14T14:20:13;28.00;1.00
9980;DHT22;5030;51.532;6.766;2023-06-14T14:22:41;29.00;1.00
9980;DHT22;5030;51.532;6.766;2023-06-14T14:25:07;29.60;1.00
9980;DHT22;5030;51.532;6.766;2023-06-14T14:27:33;29.50;1.00
9980;DHT22;5030;51.532;6.766;2023-06-14T14:29:59;29.90;1.00
9980;DHT22;5030;51.532;6.766;2023-06-14T14:32:24;29.80;1.00
9980;DHT22;5030;51.532;6.766;2023-06-14T14:34:50;29.60;1.00
9980;DHT22;5030;51.532;6.766;2023-06-14T14:37:16;29.60;1.00
9980;DHT22;5030;51.532;6.766;2023-06-14T14:39:43;29.50;1.00
9980;DHT22;5030;51.532;6.766;2023-06-14T14:42:09;29.20;1.00
9980;DHT22;5030;51.532;6.766;2023-06-14T14:44:36;29.10;1.00
9980;DHT22;5030;51.532;6.766;2023-06-14T14:47:02;29.40;1.00
9980;DHT22;5030;51.532;6.766;2023-06-14T14:49:28;29.20;1.00
9980;DHT22;5030;51.532;6.766;2023-06-14T14:51:54;29.10;1.00
9980;DHT22;5030;51.532;6.766;2023-06-14T14:54:21;28.90;1.00
9980;DHT22;5030;51.532;6.766;2023-06-14T14:56:47;29.40;1.00
9980;DHT22;5030;51.532;6.766;2023-06-14T14:59:13;29.10;1.00
9980;DHT22;5030;51.532;6.766;2023-06-14T15:01:38;29.20;1.00
9980;DHT22;5030;51.532;6.766;2023-06-14T15:04:04;29.40;1.00
9980;DHT22;5030;51.532;6.766;2023-06-14T15:06:29;28.70;1.00
9980;DHT22;5030;51.532;6.766;2023-06-14T15:08:56;28.60;1.00
9980;DHT22;5030;51.532;6.766;2023-06-14T15:11:21;28.50;1.00
9980;DHT22;5030;51.532;6.766;2023-06-14T15:13:47;28.30;1.00
9980;DHT22;5030;51.532;6.766;2023-06-14T15:16:14;28.70;1.00
9980;DHT22;5030;51.532;6.766;2023-06-14T15:18:40;29.20;1.00
9980;DHT22;5030;51.532;6.766;2023-06-14T15:21:05;29.40;1.00
9980;DHT22;5030;51.532;6.766;2023-06-14T15:23:31;29.10;1.00
9980;DHT22;5030;51.532;6.766;2023-06-14T15:25:57;29.60;1.00
9980;DHT22;5030;51.532;6.766;2023-06-14T15:28:24;30.00;1.00
9980;DHT22;5030;51.532;6.766;2023-06-14T15:30:53;29.60;1.00
9980;DHT22;5030;51.532;6.766;2023-06-14T15:33:19;29.60;1.00
9980;DHT22;5030;51.532;6.766;2023-06-14T15:35:46;29.90;1.00
9980;DHT22;5030;51.532;6.766;2023-06-14T15:38:12;29.60;1.00
9980;DHT22;5030;51.532;6.766;2023-06-14T15:40:37;29.70;1.00
9980;DHT22;5030;51.532;6.766;2023-06-14T15:43:03;30.00;1.00
9980;DHT22;5030;51.532;6.766;2023-06-14T15:45:29;30.10;1.00
9980;DHT22;5030;51.532;6.766;2023-06-14T15:47:55;29.60;1.00
9980;DHT22;5030;51.532;6.766;2023-06-14T15:50:21;29.60;1.00
9980;DHT22;5030;51.532;6.766;2023-06-14T15:52:47;29.60;1.00
9980;DHT22;5030;51.532;6.766;2023-06-14T15:55:12;29.50;1.00
9980;DHT22;5030;51.532;6.766;2023-06-14T15:57:38;28.90;1.00
9980;DHT22;5030;51.532;6.766;2023-06-14T16:00:04;28.80;1.00
9980;DHT22;5030;51.532;6.766;2023-06-14T16:02:30;29.00;1.00
9980;DHT22;5030;51.532;6.766;2023-06-14T16:04:55;29.00;1.00
9980;DHT22;5030;51.532;6.766;2023-06-14T16:07:21;29.30;1.00
9980;DHT22;5030;51.532;6.766;2023-06-14T16:09:46;29.40;1.00
9980;DHT22;5030;51.532;6.766;2023-06-14T16:12:12;29.60;1.00
9980;DHT22;5030;51.532;6.766;2023-06-14T16:14:42;29.90;1.00
9980;DHT22;5030;51.532;6.766;2023-06-14T16:17:15;29.80;1.00
9980;DHT22;5030;51.532;6.766;2023-06-14T16:19:41;29.30;1.00
9980;DHT22;5030;51.532;6.766;2023-06-14T16:22:06;29.20;1.00
9980;DHT22;5030;51.532;6.766;2023-06-14T16:24:32;29.10;1.00
9980;DHT22;5030;51.532;6.766;2023-06-14T16:26:57;28.70;1.00
9980;DHT22;5030;51.532;6.766;2023-06-14T16:29:24;29.00;1.00
9980;DHT22;5030;51.532;6.766;2023-06-14T16:31:49;28.50;1.00
9980;DHT22;5030;51.532;6.766;2023-06-14T16:34:15;28.20;1.00
9980;DHT22;5030;51.532;6.766;2023-06-14T16:36:42;28.00;1.00
9980;DHT22;5030;51.532;6.766;2023-06-14T16:39:08;28.10;1.00
9980;DHT22;5030;51.532;6.766;2023-06-14T16:41:34;28.20;1.00
9980;DHT22;5030;51.532;6.766;2023-06-14T16:43:59;28.50;1.00
9980;DHT22;5030;51.532;6.766;2023-06-14T16:46:30;28.40;1.00
9980;DHT22;5030;51.532;6.766;2023-06-14T16:48:59;28.50;1.00
9980;DHT22;5030;51.532;6.766;2023-06-14T16:51:26;28.90;1.00
9980;DHT22;5030;51.532;6.766;2023-06-14T16:53:52;28.00;1.00
9980;DHT22;5030;51.532;6.766;2023-06-14T16:56:19;27.80;1.00
9980;DHT22;5030;51.532;6.766;2023-06-14T16:58:45;28.10;1.00
9980;DHT22;5030;51.532;6.766;2023-06-14T17:01:11;28.40;1.00
9980;DHT22;5030;51.532;6.766;2023-06-14T17:03:38;28.50;1.00
9980;DHT22;5030;51.532;6.766;2023-06-14T17:06:04;28.20;1.00
9980;DHT22;5030;51.532;6.766;2023-06-14T17:08:31;28.20;1.00
9980;DHT22;5030;51.532;6.766;2023-06-14T17:10:57;28.00;1.00
9980;DHT22;5030;51.532;6.766;2023-06-14T17:13:24;28.20;1.00
9980;DHT22;5030;51.532;6.766;2023-06-14T17:15:50;27.60;1.00
9980;DHT22;5030;51.532;6.766;2023-06-14T17:18:16;27.80;1.00
9980;DHT22;5030;51.532;6.766;2023-06-14T17:20:42;27.60;1.00
9980;DHT22;5030;51.532;6.766;2023-06-14T17:23:08;27.40;1.00
9980;DHT22;5030;51.532;6.766;2023-06-14T17:25:33;27.30;1.00
9980;DHT22;5030;51.532;6.766;2023-06-14T17:27:59;27.70;1.00
9980;DHT22;5030;51.532;6.766;2023-06-14T17:30:25;27.70;1.00
9980;DHT22;5030;51.532;6.766;2023-06-14T17:32:53;27.20;1.00
9980;DHT22;5030;51.532;6.766;2023-06-14T17:35:19;26.90;1.00